Terminal Aerodrome Forecast
Issued by NWS Knoxville/Tri Cities, TN

Home | Current Version | Previous Version | Text Only | Print | Product List | Glossary On
Versions: 1 2 3 4 5 6 7 8 9 10 11 12 13 14 15 16 17 18 19 20 21 22 23 24 25 26 27 28 29 30 31 32 33 34 35 36 37 38 39 40 41 42 43 44
000
FTUS44 KMRX 050525
TAFCHA
TAF
KCHA 050525Z 0506/0606 VRB02KT P6SM SCT040 BKN080
      TEMPO 0506/0509 3SM -SHRA BR SCT010 BKN035
     FM051000 18003KT P6SM VCTS SCT009 OVC015CB
     FM051300 18003KT 4SM TSRA BR BKN025CB
     FM051600 24005KT P6SM BKN030
      TEMPO 0520/0524 5SM -TSRA BR BKN035CB
     FM060000 24004KT P6SM SCT030 BKN100=

USA.gov is the U.S. government's official web portal to all federal, state and local government web resources and services.